createdAt,value
2023-01-26T00:01:21.000Z,102111.59
2023-01-26T00:03:49.116Z,102111.31
2023-01-26T00:06:18.951Z,102113.56
2023-01-26T00:08:48.647Z,102115.34
2023-01-26T00:11:17.852Z,102103.69
2023-01-26T00:13:47.219Z,102104.66
2023-01-26T00:16:15.848Z,102091.13
2023-01-26T00:18:44.119Z,102098.19
2023-01-26T00:21:14.525Z,102094.94
2023-01-26T00:23:43.610Z,102095.66
2023-01-26T00:26:15.904Z,102091.50
2023-01-26T00:28:43.887Z,102090.53
2023-01-26T00:31:14.791Z,102089.16
2023-01-26T00:33:43.457Z,102090.25
2023-01-26T00:36:12.125Z,102075.81
2023-01-26T00:38:41.344Z,102077.22
2023-01-26T00:41:30.457Z,102065.47
2023-01-26T00:43:58.535Z,102068.84
2023-01-26T00:46:27.898Z,102074.66
2023-01-26T00:48:55.889Z,102066.34
2023-01-26T00:51:23.816Z,102063.22
2023-01-26T00:53:51.757Z,102057.00
2023-01-26T00:56:20.168Z,102060.50
2023-01-26T00:58:48.356Z,102060.66
2023-01-26T01:01:16.197Z,102054.56
2023-01-26T01:03:45.815Z,102056.16
2023-01-26T01:06:13.711Z,102053.41
2023-01-26T01:08:41.657Z,102059.47
2023-01-26T01:11:11.026Z,102054.94
2023-01-26T01:13:39.302Z,102051.19
2023-01-26T01:16:08.132Z,102051.69
2023-01-26T01:18:36.084Z,102064.66
2023-01-26T01:21:08.500Z,102060.44
2023-01-26T01:23:36.762Z,102050.69
2023-01-26T01:26:05.154Z,102045.81
2023-01-26T01:28:33.649Z,102034.09
2023-01-26T01:31:05.334Z,102034.91
2023-01-26T01:33:33.271Z,102035.72
2023-01-26T01:36:03.160Z,102037.09
2023-01-26T01:38:33.004Z,102034.06
2023-01-26T01:41:00.999Z,102028.69
2023-01-26T01:43:29.781Z,102028.69
2023-01-26T01:45:58.027Z,102026.47
2023-01-26T01:48:29.000Z,102012.31
2023-01-26T01:50:59.665Z,102010.03
2023-01-26T01:53:33.775Z,102016.41
2023-01-26T01:56:03.826Z,102009.16
2023-01-26T01:58:33.286Z,102013.97
2023-01-26T02:01:01.234Z,102004.94
2023-01-26T02:03:30.924Z,102012.19
2023-01-26T02:06:01.813Z,102010.44
2023-01-26T02:08:34.887Z,102014.34
2023-01-26T02:11:06.539Z,102012.34
2023-01-26T02:13:34.810Z,102005.28
2023-01-26T02:16:54.486Z,102001.97
2023-01-26T02:19:28.768Z,101997.09
2023-01-26T02:21:58.140Z,101998.38
2023-01-26T02:24:31.024Z,101991.66
2023-01-26T02:27:00.695Z,101986.91
2023-01-26T02:29:29.481Z,101980.06
2023-01-26T02:31:57.558Z,101977.78
2023-01-26T02:34:28.785Z,101972.75
2023-01-26T02:37:00.203Z,101971.28
2023-01-26T02:39:40.095Z,101969.59
2023-01-26T02:42:26.903Z,101977.16
2023-01-26T02:44:55.383Z,101977.88
2023-01-26T02:47:23.389Z,101967.03
2023-01-26T02:49:50.802Z,101961.19
2023-01-26T02:52:22.810Z,101957.91
2023-01-26T02:55:15.291Z,101960.91
2023-01-26T02:57:44.755Z,101959.25
2023-01-26T03:00:14.922Z,101956.78
2023-01-26T03:02:43.474Z,101961.13
2023-01-26T03:05:11.731Z,101954.50
2023-01-26T03:07:39.703Z,101962.34
2023-01-26T03:10:09.881Z,101963.22
2023-01-26T03:12:37.996Z,101970.50
2023-01-26T03:15:25.240Z,101961.47
2023-01-26T03:18:13.127Z,101960.31
2023-01-26T03:20:58.561Z,101961.66
2023-01-26T03:23:43.972Z,101958.19
2023-01-26T03:26:31.399Z,101959.84
2023-01-26T03:28:59.392Z,101946.66
2023-01-26T03:31:28.589Z,101950.00
2023-01-26T03:33:56.740Z,101949.25
2023-01-26T03:36:24.692Z,101951.53
2023-01-26T03:38:52.885Z,101948.84
2023-01-26T03:41:39.867Z,101947.41
2023-01-26T03:44:25.806Z,101946.97
2023-01-26T03:47:14.128Z,101952.47
2023-01-26T03:49:59.992Z,101948.59
2023-01-26T03:52:45.489Z,101945.22
2023-01-26T03:55:31.358Z,101947.41
2023-01-26T03:57:59.505Z,101951.25
2023-01-26T04:00:27.439Z,101953.28
2023-01-26T04:03:13.888Z,101946.81
2023-01-26T04:06:16.236Z,101943.34
2023-01-26T04:08:48.445Z,101948.69
2023-01-26T04:11:16.367Z,101951.25
2023-01-26T04:14:01.646Z,101949.84
2023-01-26T04:16:50.227Z,101950.66
2023-01-26T04:19:37.006Z,101952.84
2023-01-26T04:22:05.275Z,101941.09
2023-01-26T04:24:35.562Z,101938.00
2023-01-26T04:27:03.473Z,101940.38
2023-01-26T04:29:37.885Z,101937.19
2023-01-26T04:32:06.272Z,101943.06
2023-01-26T04:34:37.063Z,101950.75
2023-01-26T04:37:12.478Z,101945.47
2023-01-26T04:39:46.973Z,101939.56
2023-01-26T04:42:15.135Z,101933.06
2023-01-26T04:44:43.146Z,101930.59
2023-01-26T04:47:11.194Z,101925.47
2023-01-26T04:49:41.112Z,101923.19
2023-01-26T04:52:09.063Z,101923.31
2023-01-26T04:54:37.646Z,101919.34
2023-01-26T04:57:05.782Z,101918.56
2023-01-26T04:59:34.978Z,101915.91
2023-01-26T05:02:03.964Z,101915.66
2023-01-26T05:04:32.753Z,101906.31
2023-01-26T05:07:02.209Z,101902.66
2023-01-26T05:09:30.327Z,101906.94
2023-01-26T05:12:30.737Z,101908.06
2023-01-26T05:15:18.195Z,101907.38
2023-01-26T05:17:59.154Z,101913.03
2023-01-26T05:20:48.548Z,101908.69
2023-01-26T05:23:20.364Z,101903.63
2023-01-26T05:26:08.428Z,101908.25
2023-01-26T05:28:58.063Z,101915.66
2023-01-26T05:31:27.291Z,101907.94
2023-01-26T05:33:55.986Z,101908.69
2023-01-26T05:36:25.216Z,101902.22
2023-01-26T05:38:54.563Z,101900.78
2023-01-26T05:41:25.801Z,101892.25
2023-01-26T05:44:24.772Z,101904.81
2023-01-26T05:46:57.890Z,101900.59
2023-01-26T05:49:25.929Z,101909.25
2023-01-26T05:51:55.438Z,101910.00
2023-01-26T05:54:26.459Z,101917.47
2023-01-26T05:56:57.380Z,101916.97
2023-01-26T05:59:27.678Z,101917.75
2023-01-26T06:01:56.958Z,101906.03
2023-01-26T06:04:24.988Z,101907.38
2023-01-26T06:06:55.768Z,101903.34
2023-01-26T06:09:32.624Z,101902.66
2023-01-26T06:12:20.377Z,101911.59
2023-01-26T06:14:57.359Z,101913.63
2023-01-26T06:17:32.578Z,101916.41
2023-01-26T06:20:03.178Z,101922.75
2023-01-26T06:22:32.498Z,101913.53
2023-01-26T06:25:02.122Z,101909.41
2023-01-26T06:27:30.814Z,101917.06
2023-01-26T06:30:01.918Z,101925.41
2023-01-26T06:32:31.346Z,101922.75
2023-01-26T06:34:59.409Z,101926.88
2023-01-26T06:37:27.317Z,101917.28
2023-01-26T06:39:55.337Z,101915.97
2023-01-26T06:42:24.875Z,101916.09
2023-01-26T06:44:52.872Z,101914.41
2023-01-26T06:47:20.945Z,101930.91
2023-01-26T06:49:48.961Z,101925.94
2023-01-26T06:52:24.205Z,101929.44
2023-01-26T06:54:54.899Z,101923.31
2023-01-26T06:57:31.516Z,101914.22
2023-01-26T07:00:19.218Z,101915.09
2023-01-26T07:03:14.410Z,101919.03
2023-01-26T07:05:42.925Z,101919.03
2023-01-26T07:08:10.876Z,101928.72
2023-01-26T07:10:39.295Z,101928.28
2023-01-26T07:13:08.976Z,101924.41
2023-01-26T07:15:36.845Z,101929.16
2023-01-26T07:18:04.918Z,101927.78
2023-01-26T07:20:32.913Z,101927.72
2023-01-26T07:23:01.217Z,101925.22
2023-01-26T07:25:29.529Z,101925.75
2023-01-26T07:27:57.799Z,101928.28
2023-01-26T07:30:27.505Z,101922.31
2023-01-26T07:32:55.391Z,101917.09
2023-01-26T07:35:23.249Z,101921.69
2023-01-26T07:37:51.136Z,101915.94
2023-01-26T07:40:19.362Z,101921.19
2023-01-26T07:42:47.476Z,101918.34
2023-01-26T07:45:46.236Z,101919.00
2023-01-26T07:48:14.516Z,101924.28
2023-01-26T07:50:42.449Z,101926.56
2023-01-26T07:53:12.808Z,101928.25
2023-01-26T07:55:40.757Z,101933.78
2023-01-26T07:58:08.679Z,101940.72
2023-01-26T08:00:36.688Z,101933.13
2023-01-26T08:03:06.006Z,101931.44
2023-01-26T08:05:35.557Z,101927.75
2023-01-26T08:08:03.706Z,101931.84
2023-01-26T08:10:32.174Z,101939.25
2023-01-26T08:13:00.826Z,101936.41
2023-01-26T08:15:29.047Z,101949.16
2023-01-26T08:17:57.155Z,101941.41
2023-01-26T08:20:26.412Z,101940.06
2023-01-26T08:22:55.029Z,101932.09
2023-01-26T08:25:22.891Z,101935.47
2023-01-26T08:27:50.902Z,101946.97
2023-01-26T08:30:19.152Z,101947.84
2023-01-26T08:32:47.090Z,101951.97
2023-01-26T08:35:15.103Z,101958.13
2023-01-26T08:37:44.347Z,101966.91
2023-01-26T08:40:13.692Z,101951.91
2023-01-26T08:42:41.627Z,101960.38
2023-01-26T08:45:10.742Z,101961.78
2023-01-26T08:47:38.563Z,101967.81
2023-01-26T08:50:07.190Z,101965.81
2023-01-26T08:52:35.076Z,101966.09
2023-01-26T08:55:04.692Z,101967.81
2023-01-26T08:57:32.552Z,101964.53
2023-01-26T09:00:00.421Z,101953.34
2023-01-26T09:02:28.973Z,101961.78
2023-01-26T09:04:56.948Z,101969.09
2023-01-26T09:07:26.495Z,101959.31
2023-01-26T09:09:54.313Z,101967.72
2023-01-26T09:12:23.549Z,101965.47
2023-01-26T09:14:51.427Z,101955.66
2023-01-26T09:17:19.320Z,101955.66
2023-01-26T09:19:47.226Z,101957.81
2023-01-26T09:22:18.169Z,101949.81
2023-01-26T09:24:49.686Z,101954.84
2023-01-26T09:27:17.592Z,101955.22
2023-01-26T09:29:46.819Z,101958.50
2023-01-26T09:32:14.824Z,101960.91
2023-01-26T09:34:45.448Z,101955.41
2023-01-26T09:37:13.863Z,101950.84
2023-01-26T09:39:42.042Z,101952.69
2023-01-26T09:42:22.805Z,101951.81
2023-01-26T09:44:56.912Z,101953.06
2023-01-26T09:47:27.833Z,101952.75
2023-01-26T09:50:00.736Z,101950.84
2023-01-26T09:52:32.628Z,101946.69
2023-01-26T09:55:05.491Z,101941.97
2023-01-26T09:57:37.568Z,101939.22
2023-01-26T10:00:11.458Z,101940.50
2023-01-26T10:02:50.376Z,101932.97
2023-01-26T10:05:23.191Z,101928.59
2023-01-26T10:07:51.725Z,101935.63
2023-01-26T10:10:25.024Z,101929.25
2023-01-26T10:12:53.370Z,101929.09
2023-01-26T10:15:30.975Z,101932.47
2023-01-26T10:18:02.044Z,101928.16
2023-01-26T10:20:34.634Z,101928.97
2023-01-26T10:23:03.888Z,101929.31
2023-01-26T10:25:35.773Z,101930.66
2023-01-26T10:28:12.921Z,101924.44
2023-01-26T10:30:43.072Z,101924.09
2023-01-26T10:33:16.523Z,101925.22
2023-01-26T10:35:44.783Z,101925.16
2023-01-26T10:38:28.620Z,101914.38
2023-01-26T10:40:56.632Z,101922.28
2023-01-26T10:43:25.884Z,101915.72
2023-01-26T10:45:55.173Z,101910.53
2023-01-26T10:48:26.694Z,101909.34
2023-01-26T10:50:55.630Z,101907.69
2023-01-26T10:53:25.524Z,101902.53
2023-01-26T10:56:03.282Z,101901.72
2023-01-26T10:58:43.700Z,101894.13
2023-01-26T11:01:14.676Z,101896.84
2023-01-26T11:03:43.244Z,101899.47
2023-01-26T11:06:16.070Z,101889.94
2023-01-26T11:08:44.130Z,101896.22
2023-01-26T11:11:25.570Z,101896.72
2023-01-26T11:14:11.663Z,101900.75
2023-01-26T11:16:42.233Z,101889.25
2023-01-26T11:19:14.672Z,101891.13
2023-01-26T11:21:46.721Z,101887.63
2023-01-26T11:24:17.827Z,101882.00
2023-01-26T11:27:12.600Z,101884.81
2023-01-26T11:30:03.509Z,101886.81
2023-01-26T11:32:40.073Z,101882.53
2023-01-26T11:35:15.616Z,101884.06
2023-01-26T11:37:45.374Z,101879.56
2023-01-26T11:40:26.008Z,101872.16
2023-01-26T11:43:17.019Z,101878.97
2023-01-26T11:45:59.830Z,101874.72
2023-01-26T11:48:35.253Z,101879.59
2023-01-26T11:51:09.164Z,101872.81
2023-01-26T11:53:56.915Z,101857.84
2023-01-26T11:56:34.617Z,101861.66
2023-01-26T11:59:05.378Z,101855.75
2023-01-26T12:01:37.207Z,101863.13
2023-01-26T12:04:06.525Z,101846.31
2023-01-26T12:06:38.697Z,101846.94
2023-01-26T12:09:11.634Z,101838.63
2023-01-26T12:11:41.144Z,101842.41
2023-01-26T12:14:17.454Z,101843.69
2023-01-26T12:16:58.011Z,101833.38
2023-01-26T12:19:40.792Z,101832.97
2023-01-26T12:22:14.929Z,101828.19
2023-01-26T12:25:16.148Z,101821.50
2023-01-26T12:27:38.313Z,101820.75
2023-01-26T12:30:09.941Z,101826.94
2023-01-26T12:32:37.914Z,101824.25
2023-01-26T12:35:12.429Z,101824.19
2023-01-26T12:37:48.220Z,101820.31
2023-01-26T12:40:27.053Z,101825.53
2023-01-26T12:43:05.757Z,101824.03
2023-01-26T12:45:36.433Z,101817.50
2023-01-26T12:48:11.778Z,101814.28
2023-01-26T12:50:44.142Z,101808.19
2023-01-26T12:53:14.699Z,101807.31
2023-01-26T12:55:45.974Z,101809.81
2023-01-26T12:58:16.798Z,101805.72
2023-01-26T13:00:53.157Z,101804.63
2023-01-26T13:03:23.853Z,101803.06
2023-01-26T13:06:03.067Z,101798.63
2023-01-26T13:08:53.863Z,101791.75
2023-01-26T13:11:43.879Z,101794.50
2023-01-26T13:14:56.873Z,101781.31
2023-01-26T13:17:56.596Z,101785.06
2023-01-26T13:20:33.181Z,101783.31
2023-01-26T13:23:02.484Z,101783.44
2023-01-26T13:25:35.201Z,101779.94
2023-01-26T13:28:04.235Z,101773.41
2023-01-26T13:30:43.793Z,101786.34
2023-01-26T13:33:22.544Z,101787.69
2023-01-26T13:35:51.846Z,101788.44
2023-01-26T13:38:29.008Z,101798.81
2023-01-26T13:40:57.086Z,101802.81
2023-01-26T13:43:30.827Z,101797.81
2023-01-26T13:46:09.274Z,101802.94
2023-01-26T13:48:42.412Z,101803.91
2023-01-26T13:51:14.347Z,101810.91
2023-01-26T13:53:45.856Z,101812.09
2023-01-26T13:56:28.942Z,101809.34
2023-01-26T13:59:06.064Z,101808.00
2023-01-26T14:01:34.830Z,101811.81
2023-01-26T14:04:07.869Z,101809.00
2023-01-26T14:06:35.538Z,101814.47
2023-01-26T14:09:06.525Z,101809.94
2023-01-26T14:11:35.021Z,101817.63
2023-01-26T14:14:03.436Z,101820.31
2023-01-26T14:16:32.947Z,101824.66
2023-01-26T14:19:08.188Z,101832.66
2023-01-26T14:21:47.111Z,101825.63
2023-01-26T14:24:17.762Z,101826.66
2023-01-26T14:26:45.892Z,101822.06
2023-01-26T14:29:18.509Z,101820.84
2023-01-26T14:31:48.160Z,101822.34
2023-01-26T14:34:21.085Z,101822.28
2023-01-26T14:36:49.202Z,101818.72
2023-01-26T14:39:22.443Z,101820.53
2023-01-26T14:41:50.415Z,101821.47
2023-01-26T14:44:18.225Z,101825.66
2023-01-26T14:46:52.484Z,101822.28
2023-01-26T14:49:23.831Z,101818.66
2023-01-26T14:51:55.840Z,101821.47
2023-01-26T14:54:28.395Z,101814.72
2023-01-26T14:56:57.089Z,101815.38
2023-01-26T14:59:26.982Z,101819.53
2023-01-26T15:02:05.225Z,101818.91
2023-01-26T15:04:37.995Z,101821.66
2023-01-26T15:07:38.860Z,101819.97
2023-01-26T15:10:36.431Z,101819.88
2023-01-26T15:13:08.055Z,101823.84
2023-01-26T15:15:38.846Z,101822.06
2023-01-26T15:18:18.360Z,101811.75
2023-01-26T15:20:53.753Z,101821.34
2023-01-26T15:23:25.457Z,101823.75
2023-01-26T15:25:55.014Z,101818.59
2023-01-26T15:28:26.532Z,101823.91
2023-01-26T15:30:56.811Z,101822.97
2023-01-26T15:33:45.547Z,101821.47
2023-01-26T15:36:29.749Z,101820.53
2023-01-26T15:39:00.874Z,101816.34
2023-01-26T15:41:30.489Z,101822.41
2023-01-26T15:43:59.490Z,101828.63
2023-01-26T15:46:27.764Z,101818.31
2023-01-26T15:48:55.937Z,101829.44
2023-01-26T15:51:23.868Z,101826.06
2023-01-26T15:53:51.781Z,101818.50
2023-01-26T15:56:19.735Z,101818.50
2023-01-26T15:58:49.108Z,101824.56
2023-01-26T16:01:21.749Z,101828.91
2023-01-26T16:03:49.807Z,101832.34
2023-01-26T16:06:23.135Z,101836.78
2023-01-26T16:08:51.801Z,101829.91
2023-01-26T16:11:20.296Z,101830.88
2023-01-26T16:14:02.381Z,101836.13
2023-01-26T16:16:31.093Z,101829.38
2023-01-26T16:18:59.581Z,101831.13
2023-01-26T16:21:31.325Z,101829.59
2023-01-26T16:23:59.754Z,101826.47
2023-01-26T16:26:28.764Z,101834.06
2023-01-26T16:28:58.425Z,101830.09
2023-01-26T16:31:28.163Z,101828.66
2023-01-26T16:33:56.300Z,101832.34
2023-01-26T16:36:24.674Z,101835.31
2023-01-26T16:38:52.879Z,101829.31
2023-01-26T16:41:25.451Z,101829.47
2023-01-26T16:43:55.005Z,101829.56
2023-01-26T16:46:24.631Z,101833.06
2023-01-26T16:48:52.693Z,101830.56
2023-01-26T16:51:24.367Z,101823.66
2023-01-26T16:53:52.501Z,101823.69
2023-01-26T16:56:21.164Z,101833.28
2023-01-26T16:58:49.826Z,101832.50
2023-01-26T17:01:21.129Z,101838.63
2023-01-26T17:03:50.868Z,101847.16
2023-01-26T17:06:19.667Z,101842.06
2023-01-26T17:08:47.734Z,101849.03
2023-01-26T17:11:17.883Z,101842.97
2023-01-26T17:13:46.564Z,101852.44
2023-01-26T17:16:16.255Z,101855.19
2023-01-26T17:18:45.118Z,101850.78
2023-01-26T17:21:15.131Z,101851.91
2023-01-26T17:23:44.760Z,101851.66
2023-01-26T17:26:15.362Z,101854.97
2023-01-26T17:28:44.007Z,101859.22
2023-01-26T17:31:13.249Z,101861.94
2023-01-26T17:33:41.317Z,101869.75
2023-01-26T17:36:09.849Z,101863.59
2023-01-26T17:38:39.316Z,101869.59
2023-01-26T17:41:07.486Z,101866.28
2023-01-26T17:43:35.573Z,101865.41
2023-01-26T17:46:05.929Z,101869.84
2023-01-26T17:48:34.796Z,101871.53
2023-01-26T17:51:06.728Z,101865.56
2023-01-26T17:53:41.989Z,101863.97
2023-01-26T17:56:10.765Z,101868.97
2023-01-26T17:58:39.438Z,101863.13
2023-01-26T18:01:09.341Z,101871.75
2023-01-26T18:03:41.473Z,101886.41
2023-01-26T18:06:09.792Z,101872.72
2023-01-26T18:08:38.165Z,101877.22
2023-01-26T18:11:09.244Z,101882.47
2023-01-26T18:13:37.535Z,101882.31
2023-01-26T18:16:06.946Z,101891.09
2023-01-26T18:18:35.418Z,101892.69
2023-01-26T18:21:11.831Z,101891.97
2023-01-26T18:23:39.770Z,101891.06
2023-01-26T18:26:09.033Z,101886.78
2023-01-26T18:28:37.440Z,101891.22
2023-01-26T18:31:12.509Z,101893.19
2023-01-26T18:33:40.707Z,101890.41
2023-01-26T18:36:11.819Z,101895.44
2023-01-26T18:38:40.017Z,101898.84
2023-01-26T18:41:12.233Z,101895.53
2023-01-26T18:43:40.885Z,101896.50
2023-01-26T18:46:09.790Z,101907.63
2023-01-26T18:48:37.950Z,101916.16
2023-01-26T18:51:06.637Z,101915.44
2023-01-26T18:53:34.745Z,101914.56
2023-01-26T18:56:04.969Z,101920.59
2023-01-26T18:58:35.318Z,101923.19
2023-01-26T19:01:05.802Z,101918.00
2023-01-26T19:03:34.189Z,101928.38
2023-01-26T19:06:02.787Z,101929.19
2023-01-26T19:08:31.166Z,101936.19
2023-01-26T19:11:05.077Z,101941.47
2023-01-26T19:13:35.434Z,101936.31
2023-01-26T19:16:04.718Z,101936.97
2023-01-26T19:18:33.457Z,101938.09
2023-01-26T19:21:05.418Z,101940.66
2023-01-26T19:23:34.102Z,101941.38
2023-01-26T19:26:02.149Z,101946.25
2023-01-26T19:28:30.071Z,101950.59
2023-01-26T19:31:05.080Z,101951.47
2023-01-26T19:33:33.226Z,101953.16
2023-01-26T19:36:03.333Z,101960.28
2023-01-26T19:38:32.605Z,101966.25
2023-01-26T19:41:01.501Z,101964.25
2023-01-26T19:43:29.876Z,101956.53
2023-01-26T19:45:58.295Z,101965.03
2023-01-26T19:48:28.858Z,101959.31
2023-01-26T19:51:01.304Z,101966.88
2023-01-26T19:53:30.075Z,101965.91
2023-01-26T19:55:59.557Z,101964.13
2023-01-26T20:06:50.040Z,101971.06
2023-01-26T20:09:18.059Z,101967.44
2023-01-26T20:11:46.049Z,101977.59
2023-01-26T20:14:14.168Z,101974.38
2023-01-26T20:16:42.386Z,101976.97
2023-01-26T20:19:12.290Z,101984.03
2023-01-26T20:21:41.038Z,101984.81
2023-01-26T20:24:13.447Z,101989.09
2023-01-26T20:26:42.635Z,101986.41
2023-01-26T20:29:13.452Z,101982.97
2023-01-26T20:31:42.246Z,101986.53
2023-01-26T20:34:10.361Z,101992.53
2023-01-26T20:36:40.436Z,101994.22
2023-01-26T20:39:08.767Z,101992.63
2023-01-26T20:41:39.252Z,101982.47
2023-01-26T20:44:07.979Z,101991.94
2023-01-26T20:46:38.173Z,101992.25
2023-01-26T20:49:08.531Z,101996.53
2023-01-26T20:51:39.450Z,101994.75
2023-01-26T20:54:08.358Z,101988.13
2023-01-26T20:56:38.275Z,101995.59
2023-01-26T20:59:07.713Z,102002.59
2023-01-26T21:01:36.558Z,102003.34
2023-01-26T21:04:06.087Z,102004.44
2023-01-26T21:06:34.230Z,102010.53
2023-01-26T21:09:02.712Z,102014.94
2023-01-26T21:11:31.976Z,102021.44
2023-01-26T21:14:02.578Z,102014.59
2023-01-26T21:16:31.591Z,102003.56
2023-01-26T21:18:59.681Z,102004.66
2023-01-26T21:21:28.028Z,102004.75
2023-01-26T21:23:56.037Z,102013.09
2023-01-26T21:26:25.639Z,102008.09
2023-01-26T21:28:54.566Z,102017.44
2023-01-26T21:31:25.664Z,102025.09
2023-01-26T21:33:54.627Z,102024.28
2023-01-26T21:36:23.619Z,102021.06
2023-01-26T21:38:52.684Z,102023.41
2023-01-26T21:41:39.414Z,102021.66
2023-01-26T21:44:09.940Z,102023.53
2023-01-26T21:46:39.619Z,102024.13
2023-01-26T21:49:07.893Z,102025.94
2023-01-26T21:51:53.772Z,102024.47
2023-01-26T21:54:21.678Z,102021.88
2023-01-26T21:56:49.623Z,102025.47
2023-01-26T21:59:17.789Z,102029.59
2023-01-26T22:01:48.451Z,102026.84
2023-01-26T22:04:18.654Z,102031.09
2023-01-26T22:06:46.721Z,102034.63
2023-01-26T22:09:17.114Z,102034.47
2023-01-26T22:11:45.539Z,102048.41
2023-01-26T22:14:15.471Z,102041.66
2023-01-26T22:16:43.803Z,102044.97
2023-01-26T22:19:13.700Z,102040.88
2023-01-26T22:21:41.899Z,102038.06
2023-01-26T22:24:12.117Z,102042.44
2023-01-26T22:26:40.584Z,102044.13
2023-01-26T22:29:08.567Z,102044.19
2023-01-26T22:31:36.614Z,102044.97
2023-01-26T22:34:05.370Z,102041.06
2023-01-26T22:36:35.679Z,102048.72
2023-01-26T22:39:03.631Z,102032.22
2023-01-26T22:41:31.606Z,102042.63
2023-01-26T22:44:00.579Z,102038.47
2023-01-26T22:46:29.790Z,102048.03
2023-01-26T22:48:58.635Z,102033.38
2023-01-26T22:51:28.585Z,102041.09
2023-01-26T22:53:58.744Z,102039.38
2023-01-26T22:56:27.591Z,102040.13
2023-01-26T22:58:58.975Z,102047.91
2023-01-26T23:01:28.883Z,102049.56
2023-01-26T23:03:57.474Z,102057.50
2023-01-26T23:06:26.627Z,102053.00
2023-01-26T23:08:54.726Z,102054.75
2023-01-26T23:11:25.625Z,102054.75
2023-01-26T23:13:54.764Z,102056.44
2023-01-26T23:16:23.764Z,102055.41
2023-01-26T23:18:52.566Z,102058.94
2023-01-26T23:21:21.060Z,102066.66
2023-01-26T23:23:49.101Z,102059.06
2023-01-26T23:26:17.181Z,102060.78
2023-01-26T23:28:46.472Z,102062.59
2023-01-26T23:31:16.026Z,102064.25
2023-01-26T23:33:44.135Z,102072.16
2023-01-26T23:36:13.464Z,102070.19
2023-01-26T23:38:42.344Z,102084.81
2023-01-26T23:41:10.286Z,102085.78
2023-01-26T23:43:38.273Z,102087.38
2023-01-26T23:46:08.756Z,102090.78
2023-01-26T23:48:36.901Z,102091.41
2023-01-26T23:51:06.870Z,102089.69
2023-01-26T23:53:35.083Z,102089.69
2023-01-26T23:56:08.148Z,102096.66
2023-01-26T23:58:37.368Z,102091.44
